sensor_id;sensor_type;location;lat;lon;timestamp;P1;durP1;ratioP1;P2;durP2;ratioP2
11473;SDS011;5793;52.238;13.438;2023-08-07T00:00:51;5.30;;;4.35;;
11473;SDS011;5793;52.238;13.438;2023-08-07T00:03:18;6.25;;;4.40;;
11473;SDS011;5793;52.238;13.438;2023-08-07T00:05:46;7.22;;;5.35;;
11473;SDS011;5793;52.238;13.438;2023-08-07T00:08:14;9.13;;;5.75;;
11473;SDS011;5793;52.238;13.438;2023-08-07T00:10:42;7.38;;;5.25;;
11473;SDS011;5793;52.238;13.438;2023-08-07T00:13:10;8.00;;;5.30;;
11473;SDS011;5793;52.238;13.438;2023-08-07T00:15:38;5.68;;;4.78;;
11473;SDS011;5793;52.238;13.438;2023-08-07T00:18:07;9.68;;;5.32;;
11473;SDS011;5793;52.238;13.438;2023-08-07T00:20:35;5.35;;;4.85;;
11473;SDS011;5793;52.238;13.438;2023-08-07T00:23:02;6.75;;;5.00;;
11473;SDS011;5793;52.238;13.438;2023-08-07T00:25:30;6.68;;;5.15;;
11473;SDS011;5793;52.238;13.438;2023-08-07T00:27:58;7.40;;;4.47;;
11473;SDS011;5793;52.238;13.438;2023-08-07T00:30:26;7.25;;;4.80;;
11473;SDS011;5793;52.238;13.438;2023-08-07T00:32:53;7.50;;;4.90;;
11473;SDS011;5793;52.238;13.438;2023-08-07T00:35:23;7.88;;;4.22;;
11473;SDS011;5793;52.238;13.438;2023-08-07T00:37:50;8.27;;;5.18;;
11473;SDS011;5793;52.238;13.438;2023-08-07T00:40:18;7.47;;;4.57;;
11473;SDS011;5793;52.238;13.438;2023-08-07T00:42:46;6.32;;;4.75;;
11473;SDS011;5793;52.238;13.438;2023-08-07T00:45:14;5.13;;;4.30;;
11473;SDS011;5793;52.238;13.438;2023-08-07T00:47:43;5.20;;;4.13;;
11473;SDS011;5793;52.238;13.438;2023-08-07T00:50:11;7.38;;;4.80;;
11473;SDS011;5793;52.238;13.438;2023-08-07T00:52:41;5.35;;;4.60;;
11473;SDS011;5793;52.238;13.438;2023-08-07T00:55:09;5.53;;;4.50;;
11473;SDS011;5793;52.238;13.438;2023-08-07T00:57:36;7.78;;;5.05;;
11473;SDS011;5793;52.238;13.438;2023-08-07T01:00:05;5.75;;;4.78;;
11473;SDS011;5793;52.238;13.438;2023-08-07T01:02:34;6.30;;;4.88;;
11473;SDS011;5793;52.238;13.438;2023-08-07T01:05:02;7.47;;;5.40;;
11473;SDS011;5793;52.238;13.438;2023-08-07T01:07:30;7.80;;;6.00;;
11473;SDS011;5793;52.238;13.438;2023-08-07T01:09:59;9.27;;;6.00;;
11473;SDS011;5793;52.238;13.438;2023-08-07T01:12:30;8.73;;;6.40;;
11473;SDS011;5793;52.238;13.438;2023-08-07T01:15:04;9.38;;;6.38;;
11473;SDS011;5793;52.238;13.438;2023-08-07T01:17:39;9.13;;;6.63;;
11473;SDS011;5793;52.238;13.438;2023-08-07T01:20:10;10.00;;;6.65;;
11473;SDS011;5793;52.238;13.438;2023-08-07T01:22:40;9.68;;;7.15;;
11473;SDS011;5793;52.238;13.438;2023-08-07T01:25:08;10.75;;;6.90;;
11473;SDS011;5793;52.238;13.438;2023-08-07T01:27:36;10.75;;;7.25;;
11473;SDS011;5793;52.238;13.438;2023-08-07T01:30:09;11.57;;;6.82;;
11473;SDS011;5793;52.238;13.438;2023-08-07T01:32:47;11.18;;;6.80;;
11473;SDS011;5793;52.238;13.438;2023-08-07T01:35:22;9.23;;;6.85;;
11473;SDS011;5793;52.238;13.438;2023-08-07T01:37:55;12.38;;;6.97;;
11473;SDS011;5793;52.238;13.438;2023-08-07T01:40:24;9.50;;;6.88;;
11473;SDS011;5793;52.238;13.438;2023-08-07T01:42:52;12.73;;;7.32;;
11473;SDS011;5793;52.238;13.438;2023-08-07T01:45:24;12.52;;;7.03;;
11473;SDS011;5793;52.238;13.438;2023-08-07T01:47:52;12.07;;;7.25;;
11473;SDS011;5793;52.238;13.438;2023-08-07T01:50:20;11.82;;;7.28;;
11473;SDS011;5793;52.238;13.438;2023-08-07T01:52:49;11.95;;;7.30;;
11473;SDS011;5793;52.238;13.438;2023-08-07T01:55:19;11.15;;;6.88;;
11473;SDS011;5793;52.238;13.438;2023-08-07T01:57:47;10.80;;;7.57;;
11473;SDS011;5793;52.238;13.438;2023-08-07T02:00:15;8.73;;;7.10;;
11473;SDS011;5793;52.238;13.438;2023-08-07T02:02:43;13.07;;;7.50;;
11473;SDS011;5793;52.238;13.438;2023-08-07T02:05:13;10.75;;;7.35;;
11473;SDS011;5793;52.238;13.438;2023-08-07T02:07:41;10.88;;;7.78;;
11473;SDS011;5793;52.238;13.438;2023-08-07T02:10:09;11.88;;;8.18;;
11473;SDS011;5793;52.238;13.438;2023-08-07T02:12:38;10.50;;;7.95;;
11473;SDS011;5793;52.238;13.438;2023-08-07T02:15:06;10.40;;;7.63;;
11473;SDS011;5793;52.238;13.438;2023-08-07T02:17:34;14.70;;;8.55;;
11473;SDS011;5793;52.238;13.438;2023-08-07T02:20:05;10.63;;;8.68;;
11473;SDS011;5793;52.238;13.438;2023-08-07T02:22:33;11.82;;;7.90;;
11473;SDS011;5793;52.238;13.438;2023-08-07T02:25:01;9.20;;;8.25;;
11473;SDS011;5793;52.238;13.438;2023-08-07T02:27:29;11.95;;;8.35;;
11473;SDS011;5793;52.238;13.438;2023-08-07T02:29:58;13.43;;;7.95;;
11473;SDS011;5793;52.238;13.438;2023-08-07T02:32:26;10.50;;;7.90;;
11473;SDS011;5793;52.238;13.438;2023-08-07T02:34:53;10.90;;;8.13;;
11473;SDS011;5793;52.238;13.438;2023-08-07T02:37:21;9.20;;;7.18;;
11473;SDS011;5793;52.238;13.438;2023-08-07T02:39:49;8.43;;;6.93;;
11473;SDS011;5793;52.238;13.438;2023-08-07T02:42:17;12.30;;;7.50;;
11473;SDS011;5793;52.238;13.438;2023-08-07T02:44:45;9.77;;;7.40;;
11473;SDS011;5793;52.238;13.438;2023-08-07T02:47:14;9.20;;;7.22;;
11473;SDS011;5793;52.238;13.438;2023-08-07T02:49:42;10.93;;;6.97;;
11473;SDS011;5793;52.238;13.438;2023-08-07T02:52:09;9.45;;;7.45;;
11473;SDS011;5793;52.238;13.438;2023-08-07T02:54:37;7.88;;;7.07;;
11473;SDS011;5793;52.238;13.438;2023-08-07T02:57:05;8.43;;;6.70;;
11473;SDS011;5793;52.238;13.438;2023-08-07T02:59:33;10.38;;;6.82;;
11473;SDS011;5793;52.238;13.438;2023-08-07T03:02:01;9.90;;;6.45;;
11473;SDS011;5793;52.238;13.438;2023-08-07T03:04:30;12.25;;;7.32;;
11473;SDS011;5793;52.238;13.438;2023-08-07T03:06:58;9.82;;;7.40;;
11473;SDS011;5793;52.238;13.438;2023-08-07T03:09:27;10.73;;;7.35;;
11473;SDS011;5793;52.238;13.438;2023-08-07T03:11:54;7.97;;;7.18;;
11473;SDS011;5793;52.238;13.438;2023-08-07T03:14:22;11.13;;;7.28;;
11473;SDS011;5793;52.238;13.438;2023-08-07T03:16:50;10.43;;;7.40;;
11473;SDS011;5793;52.238;13.438;2023-08-07T03:19:18;13.93;;;8.55;;
11473;SDS011;5793;52.238;13.438;2023-08-07T03:21:49;10.57;;;7.60;;
11473;SDS011;5793;52.238;13.438;2023-08-07T03:24:17;10.35;;;7.75;;
11473;SDS011;5793;52.238;13.438;2023-08-07T03:26:44;9.85;;;7.72;;
11473;SDS011;5793;52.238;13.438;2023-08-07T03:29:13;11.40;;;8.35;;
11473;SDS011;5793;52.238;13.438;2023-08-07T03:31:41;11.40;;;8.60;;
11473;SDS011;5793;52.238;13.438;2023-08-07T03:34:09;11.52;;;8.27;;
11473;SDS011;5793;52.238;13.438;2023-08-07T03:36:37;10.75;;;8.48;;
11473;SDS011;5793;52.238;13.438;2023-08-07T03:39:06;11.60;;;9.05;;
11473;SDS011;5793;52.238;13.438;2023-08-07T03:41:33;13.85;;;8.50;;
11473;SDS011;5793;52.238;13.438;2023-08-07T03:44:01;12.15;;;8.80;;
11473;SDS011;5793;52.238;13.438;2023-08-07T03:46:29;9.65;;;8.65;;
11473;SDS011;5793;52.238;13.438;2023-08-07T03:48:57;14.13;;;9.60;;
11473;SDS011;5793;52.238;13.438;2023-08-07T03:51:25;12.18;;;9.13;;
11473;SDS011;5793;52.238;13.438;2023-08-07T03:53:53;12.00;;;9.70;;
11473;SDS011;5793;52.238;13.438;2023-08-07T03:56:22;15.45;;;10.13;;
11473;SDS011;5793;52.238;13.438;2023-08-07T03:58:50;12.60;;;9.63;;
11473;SDS011;5793;52.238;13.438;2023-08-07T04:01:17;13.35;;;9.80;;
11473;SDS011;5793;52.238;13.438;2023-08-07T04:03:46;13.25;;;9.50;;
11473;SDS011;5793;52.238;13.438;2023-08-07T04:06:14;12.48;;;8.80;;
11473;SDS011;5793;52.238;13.438;2023-08-07T04:08:44;14.85;;;9.90;;
11473;SDS011;5793;52.238;13.438;2023-08-07T04:11:12;14.95;;;9.48;;
11473;SDS011;5793;52.238;13.438;2023-08-07T04:13:41;13.25;;;9.55;;
11473;SDS011;5793;52.238;13.438;2023-08-07T04:16:09;11.88;;;9.55;;
11473;SDS011;5793;52.238;13.438;2023-08-07T04:18:37;16.15;;;9.63;;
11473;SDS011;5793;52.238;13.438;2023-08-07T04:21:05;12.88;;;9.70;;
11473;SDS011;5793;52.238;13.438;2023-08-07T04:23:33;10.13;;;9.00;;
11473;SDS011;5793;52.238;13.438;2023-08-07T04:26:00;14.02;;;9.52;;
11473;SDS011;5793;52.238;13.438;2023-08-07T04:28:28;11.30;;;9.25;;
11473;SDS011;5793;52.238;13.438;2023-08-07T04:30:58;10.68;;;8.70;;
11473;SDS011;5793;52.238;13.438;2023-08-07T04:33:25;13.95;;;8.48;;
11473;SDS011;5793;52.238;13.438;2023-08-07T04:35:53;10.80;;;8.32;;
11473;SDS011;5793;52.238;13.438;2023-08-07T04:38:21;12.43;;;9.07;;
11473;SDS011;5793;52.238;13.438;2023-08-07T04:40:49;12.32;;;8.70;;
11473;SDS011;5793;52.238;13.438;2023-08-07T04:43:18;10.88;;;8.15;;
11473;SDS011;5793;52.238;13.438;2023-08-07T04:45:47;14.30;;;8.75;;
11473;SDS011;5793;52.238;13.438;2023-08-07T04:48:16;12.23;;;8.30;;
11473;SDS011;5793;52.238;13.438;2023-08-07T04:50:46;9.80;;;7.55;;
11473;SDS011;5793;52.238;13.438;2023-08-07T04:53:14;11.90;;;8.50;;
11473;SDS011;5793;52.238;13.438;2023-08-07T04:55:42;10.52;;;7.55;;
11473;SDS011;5793;52.238;13.438;2023-08-07T04:58:10;10.63;;;8.18;;
11473;SDS011;5793;52.238;13.438;2023-08-07T05:00:38;10.27;;;7.22;;
11473;SDS011;5793;52.238;13.438;2023-08-07T05:03:06;10.32;;;7.13;;
11473;SDS011;5793;52.238;13.438;2023-08-07T05:05:35;8.73;;;7.10;;
11473;SDS011;5793;52.238;13.438;2023-08-07T05:08:03;11.07;;;6.80;;
11473;SDS011;5793;52.238;13.438;2023-08-07T05:10:31;9.48;;;7.28;;
11473;SDS011;5793;52.238;13.438;2023-08-07T05:12:59;8.75;;;6.82;;
11473;SDS011;5793;52.238;13.438;2023-08-07T05:15:27;10.85;;;6.72;;
11473;SDS011;5793;52.238;13.438;2023-08-07T05:17:57;10.07;;;7.10;;
11473;SDS011;5793;52.238;13.438;2023-08-07T05:20:25;8.23;;;6.40;;
11473;SDS011;5793;52.238;13.438;2023-08-07T05:22:54;9.13;;;6.85;;
11473;SDS011;5793;52.238;13.438;2023-08-07T05:25:22;8.95;;;6.20;;
11473;SDS011;5793;52.238;13.438;2023-08-07T05:27:50;6.63;;;6.03;;
11473;SDS011;5793;52.238;13.438;2023-08-07T05:30:18;9.52;;;6.15;;
11473;SDS011;5793;52.238;13.438;2023-08-07T05:32:45;10.50;;;8.50;;
11473;SDS011;5793;52.238;13.438;2023-08-07T05:35:13;8.43;;;5.78;;
11473;SDS011;5793;52.238;13.438;2023-08-07T05:37:41;9.55;;;6.22;;
11473;SDS011;5793;52.238;13.438;2023-08-07T05:40:10;9.63;;;6.15;;
11473;SDS011;5793;52.238;13.438;2023-08-07T05:42:39;11.80;;;6.18;;
11473;SDS011;5793;52.238;13.438;2023-08-07T05:45:07;10.75;;;6.20;;
11473;SDS011;5793;52.238;13.438;2023-08-07T05:47:36;7.28;;;5.88;;
11473;SDS011;5793;52.238;13.438;2023-08-07T05:50:04;9.50;;;5.78;;
11473;SDS011;5793;52.238;13.438;2023-08-07T05:52:33;9.05;;;5.78;;
11473;SDS011;5793;52.238;13.438;2023-08-07T05:55:01;8.98;;;5.50;;
11473;SDS011;5793;52.238;13.438;2023-08-07T05:57:32;7.93;;;5.57;;
11473;SDS011;5793;52.238;13.438;2023-08-07T06:00:00;9.38;;;5.57;;
11473;SDS011;5793;52.238;13.438;2023-08-07T06:02:28;7.03;;;5.53;;
11473;SDS011;5793;52.238;13.438;2023-08-07T06:04:56;8.38;;;5.10;;
11473;SDS011;5793;52.238;13.438;2023-08-07T06:07:24;8.23;;;5.07;;
11473;SDS011;5793;52.238;13.438;2023-08-07T06:09:52;7.03;;;5.60;;
11473;SDS011;5793;52.238;13.438;2023-08-07T06:12:19;6.32;;;5.15;;
11473;SDS011;5793;52.238;13.438;2023-08-07T06:14:49;6.20;;;5.03;;
11473;SDS011;5793;52.238;13.438;2023-08-07T06:17:17;6.18;;;5.07;;
11473;SDS011;5793;52.238;13.438;2023-08-07T06:19:45;6.45;;;4.93;;
11473;SDS011;5793;52.238;13.438;2023-08-07T06:22:13;6.68;;;5.40;;
11473;SDS011;5793;52.238;13.438;2023-08-07T06:24:41;6.63;;;5.05;;
11473;SDS011;5793;52.238;13.438;2023-08-07T06:27:09;6.53;;;4.82;;
11473;SDS011;5793;52.238;13.438;2023-08-07T06:29:37;8.10;;;4.60;;
11473;SDS011;5793;52.238;13.438;2023-08-07T06:32:06;4.90;;;3.97;;
11473;SDS011;5793;52.238;13.438;2023-08-07T06:34:37;6.35;;;4.57;;
11473;SDS011;5793;52.238;13.438;2023-08-07T06:37:05;5.30;;;4.43;;
11473;SDS011;5793;52.238;13.438;2023-08-07T06:39:33;7.32;;;4.28;;
11473;SDS011;5793;52.238;13.438;2023-08-07T06:42:01;5.70;;;4.07;;
11473;SDS011;5793;52.238;13.438;2023-08-07T06:44:29;6.53;;;4.22;;
11473;SDS011;5793;52.238;13.438;2023-08-07T06:46:57;6.65;;;4.18;;
11473;SDS011;5793;52.238;13.438;2023-08-07T06:49:27;4.75;;;4.00;;
11473;SDS011;5793;52.238;13.438;2023-08-07T06:51:55;4.07;;;3.60;;
11473;SDS011;5793;52.238;13.438;2023-08-07T06:54:23;4.82;;;3.42;;
11473;SDS011;5793;52.238;13.438;2023-08-07T06:56:52;6.32;;;3.40;;
11473;SDS011;5793;52.238;13.438;2023-08-07T06:59:20;6.43;;;3.70;;
11473;SDS011;5793;52.238;13.438;2023-08-07T07:01:48;4.03;;;3.50;;
11473;SDS011;5793;52.238;13.438;2023-08-07T07:04:16;5.32;;;3.22;;
11473;SDS011;5793;52.238;13.438;2023-08-07T07:06:45;4.45;;;3.70;;
11473;SDS011;5793;52.238;13.438;2023-08-07T07:09:13;5.22;;;3.45;;
11473;SDS011;5793;52.238;13.438;2023-08-07T07:11:42;5.18;;;3.28;;
11473;SDS011;5793;52.238;13.438;2023-08-07T07:14:10;3.97;;;3.10;;
11473;SDS011;5793;52.238;13.438;2023-08-07T07:16:38;4.38;;;3.40;;
11473;SDS011;5793;52.238;13.438;2023-08-07T07:19:08;6.10;;;2.92;;
11473;SDS011;5793;52.238;13.438;2023-08-07T07:21:36;4.38;;;3.10;;
11473;SDS011;5793;52.238;13.438;2023-08-07T07:24:05;4.95;;;3.28;;
11473;SDS011;5793;52.238;13.438;2023-08-07T07:26:34;3.75;;;2.78;;
11473;SDS011;5793;52.238;13.438;2023-08-07T07:29:02;4.57;;;2.83;;
11473;SDS011;5793;52.238;13.438;2023-08-07T07:31:30;4.43;;;3.15;;
11473;SDS011;5793;52.238;13.438;2023-08-07T07:33:58;4.15;;;3.03;;
11473;SDS011;5793;52.238;13.438;2023-08-07T07:36:26;4.20;;;2.85;;
11473;SDS011;5793;52.238;13.438;2023-08-07T07:38:54;3.47;;;3.00;;
11473;SDS011;5793;52.238;13.438;2023-08-07T07:41:23;4.03;;;3.03;;
11473;SDS011;5793;52.238;13.438;2023-08-07T07:43:51;7.22;;;3.20;;
11473;SDS011;5793;52.238;13.438;2023-08-07T07:46:22;2.90;;;2.53;;
11473;SDS011;5793;52.238;13.438;2023-08-07T07:48:51;4.05;;;2.60;;
11473;SDS011;5793;52.238;13.438;2023-08-07T07:51:19;5.22;;;2.88;;
11473;SDS011;5793;52.238;13.438;2023-08-07T07:53:47;4.82;;;3.17;;
11473;SDS011;5793;52.238;13.438;2023-08-07T07:56:36;3.90;;;2.50;;
11473;SDS011;5793;52.238;13.438;2023-08-07T07:59:04;6.32;;;2.72;;
11473;SDS011;5793;52.238;13.438;2023-08-07T08:01:34;3.38;;;2.38;;
11473;SDS011;5793;52.238;13.438;2023-08-07T08:04:03;3.75;;;2.92;;
11473;SDS011;5793;52.238;13.438;2023-08-07T08:06:31;4.20;;;2.55;;
11473;SDS011;5793;52.238;13.438;2023-08-07T08:08:59;4.30;;;2.45;;
11473;SDS011;5793;52.238;13.438;2023-08-07T08:11:30;4.35;;;2.47;;
11473;SDS011;5793;52.238;13.438;2023-08-07T08:14:00;5.28;;;2.28;;
11473;SDS011;5793;52.238;13.438;2023-08-07T08:16:28;4.50;;;2.20;;
11473;SDS011;5793;52.238;13.438;2023-08-07T08:18:56;5.25;;;2.47;;
11473;SDS011;5793;52.238;13.438;2023-08-07T08:21:24;4.05;;;2.53;;
11473;SDS011;5793;52.238;13.438;2023-08-07T08:23:52;5.68;;;2.50;;
11473;SDS011;5793;52.238;13.438;2023-08-07T08:26:19;3.78;;;2.60;;
11473;SDS011;5793;52.238;13.438;2023-08-07T08:28:47;5.18;;;2.63;;
11473;SDS011;5793;52.238;13.438;2023-08-07T08:31:16;4.00;;;2.45;;
11473;SDS011;5793;52.238;13.438;2023-08-07T08:33:46;6.72;;;2.63;;
11473;SDS011;5793;52.238;13.438;2023-08-07T08:36:14;4.68;;;2.30;;
11473;SDS011;5793;52.238;13.438;2023-08-07T08:38:43;6.10;;;2.55;;
11473;SDS011;5793;52.238;13.438;2023-08-07T08:41:11;4.82;;;2.55;;
11473;SDS011;5793;52.238;13.438;2023-08-07T08:43:39;2.45;;;2.17;;
11473;SDS011;5793;52.238;13.438;2023-08-07T08:46:10;3.97;;;2.60;;
11473;SDS011;5793;52.238;13.438;2023-08-07T08:48:40;3.10;;;2.20;;
11473;SDS011;5793;52.238;13.438;2023-08-07T08:51:10;9.05;;;2.83;;
11473;SDS011;5793;52.238;13.438;2023-08-07T08:53:39;5.57;;;2.17;;
11473;SDS011;5793;52.238;13.438;2023-08-07T08:56:07;5.40;;;2.60;;
11473;SDS011;5793;52.238;13.438;2023-08-07T08:58:35;3.28;;;2.22;;
11473;SDS011;5793;52.238;13.438;2023-08-07T09:01:03;3.33;;;2.17;;
11473;SDS011;5793;52.238;13.438;2023-08-07T09:03:32;4.68;;;2.45;;
11473;SDS011;5793;52.238;13.438;2023-08-07T09:06:01;4.72;;;2.08;;
11473;SDS011;5793;52.238;13.438;2023-08-07T09:08:30;2.70;;;1.88;;
11473;SDS011;5793;52.238;13.438;2023-08-07T09:10:59;3.47;;;2.00;;
11473;SDS011;5793;52.238;13.438;2023-08-07T09:13:27;2.13;;;1.88;;
11473;SDS011;5793;52.238;13.438;2023-08-07T09:15:56;4.28;;;1.92;;
11473;SDS011;5793;52.238;13.438;2023-08-07T09:18:27;2.50;;;2.00;;
11473;SDS011;5793;52.238;13.438;2023-08-07T09:20:55;2.95;;;2.03;;
11473;SDS011;5793;52.238;13.438;2023-08-07T09:23:25;2.33;;;1.77;;
11473;SDS011;5793;52.238;13.438;2023-08-07T09:26:00;3.67;;;2.03;;
11473;SDS011;5793;52.238;13.438;2023-08-07T09:28:28;2.58;;;2.15;;
11473;SDS011;5793;52.238;13.438;2023-08-07T09:30:57;3.78;;;2.15;;
11473;SDS011;5793;52.238;13.438;2023-08-07T09:33:28;6.63;;;2.28;;
11473;SDS011;5793;52.238;13.438;2023-08-07T09:35:57;3.28;;;1.95;;
11473;SDS011;5793;52.238;13.438;2023-08-07T09:38:29;2.45;;;1.85;;
11473;SDS011;5793;52.238;13.438;2023-08-07T09:40:59;3.83;;;2.20;;
11473;SDS011;5793;52.238;13.438;2023-08-07T09:43:27;3.08;;;2.00;;
11473;SDS011;5793;52.238;13.438;2023-08-07T09:46:01;5.05;;;1.70;;
11473;SDS011;5793;52.238;13.438;2023-08-07T09:48:30;4.03;;;1.90;;
11473;SDS011;5793;52.238;13.438;2023-08-07T09:51:00;2.47;;;1.90;;
11473;SDS011;5793;52.238;13.438;2023-08-07T09:53:30;6.55;;;1.90;;
11473;SDS011;5793;52.238;13.438;2023-08-07T09:55:58;4.75;;;2.03;;
11473;SDS011;5793;52.238;13.438;2023-08-07T09:58:27;1.83;;;1.60;;
11473;SDS011;5793;52.238;13.438;2023-08-07T10:00:55;2.30;;;1.85;;
11473;SDS011;5793;52.238;13.438;2023-08-07T10:03:26;4.93;;;1.83;;
11473;SDS011;5793;52.238;13.438;2023-08-07T10:05:55;2.80;;;1.60;;
11473;SDS011;5793;52.238;13.438;2023-08-07T10:08:23;2.65;;;1.58;;
11473;SDS011;5793;52.238;13.438;2023-08-07T10:10:53;3.35;;;1.75;;
11473;SDS011;5793;52.238;13.438;2023-08-07T10:13:21;3.58;;;1.90;;
11473;SDS011;5793;52.238;13.438;2023-08-07T10:16:04;5.03;;;1.63;;
11473;SDS011;5793;52.238;13.438;2023-08-07T10:18:32;3.47;;;1.83;;
11473;SDS011;5793;52.238;13.438;2023-08-07T10:21:00;3.15;;;1.50;;
11473;SDS011;5793;52.238;13.438;2023-08-07T10:23:29;5.88;;;1.80;;
11473;SDS011;5793;52.238;13.438;2023-08-07T10:25:59;3.78;;;1.70;;
11473;SDS011;5793;52.238;13.438;2023-08-07T10:28:29;3.25;;;1.60;;
11473;SDS011;5793;52.238;13.438;2023-08-07T10:30:59;2.38;;;1.50;;
11473;SDS011;5793;52.238;13.438;2023-08-07T10:33:28;6.90;;;1.85;;
11473;SDS011;5793;52.238;13.438;2023-08-07T10:35:57;4.68;;;1.73;;
11473;SDS011;5793;52.238;13.438;2023-08-07T10:38:26;3.33;;;1.63;;
11473;SDS011;5793;52.238;13.438;2023-08-07T10:41:02;4.03;;;1.60;;
11473;SDS011;5793;52.238;13.438;2023-08-07T10:43:36;4.13;;;1.80;;
11473;SDS011;5793;52.238;13.438;2023-08-07T10:46:05;4.82;;;1.60;;
11473;SDS011;5793;52.238;13.438;2023-08-07T10:48:40;6.03;;;1.95;;
11473;SDS011;5793;52.238;13.438;2023-08-07T10:51:11;2.38;;;1.55;;
11473;SDS011;5793;52.238;13.438;2023-08-07T10:53:40;3.42;;;1.40;;
11473;SDS011;5793;52.238;13.438;2023-08-07T10:56:16;4.10;;;1.65;;
11473;SDS011;5793;52.238;13.438;2023-08-07T10:58:47;4.57;;;1.55;;
11473;SDS011;5793;52.238;13.438;2023-08-07T11:01:18;2.50;;;1.30;;
11473;SDS011;5793;52.238;13.438;2023-08-07T11:03:55;3.17;;;1.20;;
11473;SDS011;5793;52.238;13.438;2023-08-07T11:06:24;3.13;;;1.30;;
11473;SDS011;5793;52.238;13.438;2023-08-07T11:08:53;3.78;;;1.80;;
11473;SDS011;5793;52.238;13.438;2023-08-07T11:11:23;3.25;;;1.30;;
11473;SDS011;5793;52.238;13.438;2023-08-07T11:13:51;4.60;;;1.33;;
11473;SDS011;5793;52.238;13.438;2023-08-07T11:16:19;2.55;;;1.50;;
11473;SDS011;5793;52.238;13.438;2023-08-07T11:18:48;6.00;;;1.63;;
11473;SDS011;5793;52.238;13.438;2023-08-07T11:21:16;1.95;;;1.30;;
11473;SDS011;5793;52.238;13.438;2023-08-07T11:23:45;1.83;;;1.48;;
11473;SDS011;5793;52.238;13.438;2023-08-07T11:26:13;3.90;;;1.58;;
11473;SDS011;5793;52.238;13.438;2023-08-07T11:28:42;7.78;;;3.50;;
11473;SDS011;5793;52.238;13.438;2023-08-07T11:31:10;2.47;;;1.60;;
11473;SDS011;5793;52.238;13.438;2023-08-07T11:33:39;2.58;;;1.60;;
11473;SDS011;5793;52.238;13.438;2023-08-07T11:36:10;3.72;;;1.50;;
11473;SDS011;5793;52.238;13.438;2023-08-07T11:38:39;3.70;;;1.40;;
11473;SDS011;5793;52.238;13.438;2023-08-07T11:41:10;3.28;;;1.52;;
11473;SDS011;5793;52.238;13.438;2023-08-07T11:43:39;5.03;;;1.55;;
11473;SDS011;5793;52.238;13.438;2023-08-07T11:46:10;5.55;;;1.80;;
11473;SDS011;5793;52.238;13.438;2023-08-07T11:48:40;3.72;;;1.55;;
11473;SDS011;5793;52.238;13.438;2023-08-07T11:51:08;3.67;;;1.70;;
11473;SDS011;5793;52.238;13.438;2023-08-07T11:53:37;4.45;;;1.60;;
11473;SDS011;5793;52.238;13.438;2023-08-07T11:56:07;1.50;;;1.40;;
11473;SDS011;5793;52.238;13.438;2023-08-07T11:58:37;2.30;;;1.52;;
11473;SDS011;5793;52.238;13.438;2023-08-07T12:01:06;4.03;;;1.50;;
11473;SDS011;5793;52.238;13.438;2023-08-07T12:03:42;3.05;;;1.55;;
11473;SDS011;5793;52.238;13.438;2023-08-07T12:06:17;2.42;;;1.50;;
11473;SDS011;5793;52.238;13.438;2023-08-07T12:08:45;4.78;;;1.52;;
11473;SDS011;5793;52.238;13.438;2023-08-07T12:11:15;7.05;;;1.67;;
11473;SDS011;5793;52.238;13.438;2023-08-07T12:13:43;8.27;;;1.85;;
11473;SDS011;5793;52.238;13.438;2023-08-07T12:16:14;3.30;;;1.20;;
11473;SDS011;5793;52.238;13.438;2023-08-07T12:18:43;4.20;;;1.45;;
11473;SDS011;5793;52.238;13.438;2023-08-07T12:21:13;1.58;;;1.35;;
11473;SDS011;5793;52.238;13.438;2023-08-07T12:23:43;3.67;;;1.48;;
11473;SDS011;5793;52.238;13.438;2023-08-07T12:26:14;3.00;;;1.30;;
11473;SDS011;5793;52.238;13.438;2023-08-07T12:28:42;6.80;;;2.30;;
11473;SDS011;5793;52.238;13.438;2023-08-07T12:31:10;2.58;;;1.30;;
11473;SDS011;5793;52.238;13.438;2023-08-07T12:33:39;2.75;;;1.23;;
11473;SDS011;5793;52.238;13.438;2023-08-07T12:36:07;2.60;;;1.30;;
11473;SDS011;5793;52.238;13.438;2023-08-07T12:38:37;3.80;;;1.15;;
11473;SDS011;5793;52.238;13.438;2023-08-07T12:41:05;4.85;;;1.80;;
11473;SDS011;5793;52.238;13.438;2023-08-07T12:43:53;3.45;;;1.00;;
11473;SDS011;5793;52.238;13.438;2023-08-07T12:46:21;3.30;;;1.48;;
11473;SDS011;5793;52.238;13.438;2023-08-07T12:48:53;4.07;;;1.55;;
11473;SDS011;5793;52.238;13.438;2023-08-07T12:51:20;17.77;;;2.13;;
11473;SDS011;5793;52.238;13.438;2023-08-07T12:53:48;2.80;;;1.45;;
11473;SDS011;5793;52.238;13.438;2023-08-07T12:56:17;5.00;;;1.85;;
11473;SDS011;5793;52.238;13.438;2023-08-07T12:58:45;4.70;;;1.77;;
11473;SDS011;5793;52.238;13.438;2023-08-07T13:01:13;2.88;;;1.65;;
11473;SDS011;5793;52.238;13.438;2023-08-07T13:03:41;6.18;;;1.58;;
11473;SDS011;5793;52.238;13.438;2023-08-07T13:06:10;2.80;;;1.45;;
11473;SDS011;5793;52.238;13.438;2023-08-07T13:08:38;2.58;;;1.70;;
11473;SDS011;5793;52.238;13.438;2023-08-07T13:11:07;26.00;;;2.63;;
11473;SDS011;5793;52.238;13.438;2023-08-07T13:13:35;5.43;;;1.58;;
11473;SDS011;5793;52.238;13.438;2023-08-07T13:16:04;3.35;;;1.55;;
11473;SDS011;5793;52.238;13.438;2023-08-07T13:18:32;6.10;;;1.65;;
11473;SDS011;5793;52.238;13.438;2023-08-07T13:21:00;5.07;;;1.60;;
11473;SDS011;5793;52.238;13.438;2023-08-07T13:23:29;5.95;;;1.75;;
11473;SDS011;5793;52.238;13.438;2023-08-07T13:25:57;5.00;;;1.90;;
11473;SDS011;5793;52.238;13.438;2023-08-07T13:28:25;5.13;;;1.95;;
11473;SDS011;5793;52.238;13.438;2023-08-07T13:30:52;4.78;;;2.00;;
11473;SDS011;5793;52.238;13.438;2023-08-07T13:33:22;3.47;;;1.60;;
11473;SDS011;5793;52.238;13.438;2023-08-07T13:35:50;5.45;;;1.52;;
11473;SDS011;5793;52.238;13.438;2023-08-07T13:38:18;8.27;;;2.15;;
11473;SDS011;5793;52.238;13.438;2023-08-07T13:40:47;4.82;;;1.98;;
11473;SDS011;5793;52.238;13.438;2023-08-07T13:43:17;6.43;;;2.08;;
11473;SDS011;5793;52.238;13.438;2023-08-07T13:45:45;3.67;;;1.70;;
11473;SDS011;5793;52.238;13.438;2023-08-07T13:48:12;4.32;;;1.80;;
11473;SDS011;5793;52.238;13.438;2023-08-07T13:50:40;4.22;;;1.75;;
11473;SDS011;5793;52.238;13.438;2023-08-07T13:53:08;3.13;;;1.90;;
11473;SDS011;5793;52.238;13.438;2023-08-07T13:55:41;3.92;;;1.77;;
11473;SDS011;5793;52.238;13.438;2023-08-07T13:58:10;3.85;;;1.73;;
11473;SDS011;5793;52.238;13.438;2023-08-07T14:00:38;5.82;;;2.03;;
11473;SDS011;5793;52.238;13.438;2023-08-07T14:03:07;6.32;;;1.90;;
11473;SDS011;5793;52.238;13.438;2023-08-07T14:05:36;4.60;;;1.90;;
11473;SDS011;5793;52.238;13.438;2023-08-07T14:08:05;6.95;;;1.90;;
11473;SDS011;5793;52.238;13.438;2023-08-07T14:10:32;4.07;;;1.85;;
11473;SDS011;5793;52.238;13.438;2023-08-07T14:13:02;3.25;;;1.85;;
11473;SDS011;5793;52.238;13.438;2023-08-07T14:15:32;3.63;;;1.70;;
11473;SDS011;5793;52.238;13.438;2023-08-07T14:18:00;5.18;;;2.20;;
11473;SDS011;5793;52.238;13.438;2023-08-07T14:20:27;4.88;;;1.65;;
11473;SDS011;5793;52.238;13.438;2023-08-07T14:22:55;5.88;;;2.20;;
11473;SDS011;5793;52.238;13.438;2023-08-07T14:25:34;5.75;;;1.73;;
11473;SDS011;5793;52.238;13.438;2023-08-07T14:28:03;4.35;;;2.00;;
11473;SDS011;5793;52.238;13.438;2023-08-07T14:30:34;4.13;;;2.00;;
11473;SDS011;5793;52.238;13.438;2023-08-07T14:33:02;5.72;;;2.17;;
11473;SDS011;5793;52.238;13.438;2023-08-07T14:35:30;6.00;;;2.08;;
11473;SDS011;5793;52.238;13.438;2023-08-07T14:37:58;6.45;;;2.10;;
11473;SDS011;5793;52.238;13.438;2023-08-07T14:40:25;4.95;;;1.63;;
11473;SDS011;5793;52.238;13.438;2023-08-07T14:42:54;4.72;;;2.03;;
11473;SDS011;5793;52.238;13.438;2023-08-07T14:45:22;3.42;;;1.77;;
11473;SDS011;5793;52.238;13.438;2023-08-07T14:47:52;7.07;;;2.03;;
11473;SDS011;5793;52.238;13.438;2023-08-07T14:50:20;3.72;;;1.50;;
11473;SDS011;5793;52.238;13.438;2023-08-07T14:52:47;3.90;;;1.60;;
11473;SDS011;5793;52.238;13.438;2023-08-07T14:55:15;4.68;;;1.98;;